CheckWX is a tool to help pilots better visualize weather data.  It is not intended as a substitute for an official pre-flight weather briefing.

17:49:17 UTC

UIII METAR
Irkutsk Airport
Irkutsk, Russian Federation
Current

49 mins ago

UIII 111700Z 10002MPS CAVOK M08/M08 Q1010 R12/390045 NOSIG RMK QFE715/0954
Observed
Dec-11 @ 17:00 UTC
Wind
  • 100° at 4 KTS
Visibility
10,000+ meters
Flight Rules
VFR
Cloud Levels
  • Clear skies
Temperature
-8°C / 18°F
Dewpoint
-8°C / 18°F
Humidity
100%
Altimeter
29.82" Hg
Pressure
1009.92 hPa
Previous

1 hour ago

UIII 111630Z 09002MPS CAVOK M10/M12 Q1010 R12/390045 NOSIG RMK QFE715/0954
Observed
Dec-11 @ 16:30 UTC
Wind
  • 090° at 4 KTS
Visibility
10,000+ meters
Flight Rules
VFR
Cloud Levels
  • Clear skies
Temperature
-10°C / 14°F
Dewpoint
-12°C / 10°F
Humidity
85%
Altimeter
29.82" Hg
Pressure
1009.92 hPa
Previous

2 hours ago

UIII 111600Z 14004MPS CAVOK M06/M07 Q1010 R30/390045 NOSIG RMK QFE713/0951
Observed
Dec-11 @ 16:00 UTC
Wind
  • 140° at 8 KTS
Visibility
10,000+ meters
Flight Rules
VFR
Cloud Levels
  • Clear skies
Temperature
-6°C / 21°F
Dewpoint
-7°C / 19°F
Humidity
93%
Altimeter
29.82" Hg
Pressure
1009.92 hPa